Time;durP1;ratioP1;P1;durP2;ratioP2;P2;SDS_P1;SDS_P2;PMS_P1;PMS_P2;Temp;Humidity;BMP_temperature;BMP_pressure;BME280_temperature;BME280_humidity;BME280_pressure;Samples;Min_cycle;Max_cycle;Signal;HPM_P1;HPM_P2
2021/12/10 00:00:16;;;;;;;15.00;3.65;;;;;;;;;;5003554;28;20026;-85
2021/12/10 00:02:46;;;;;;;16.10;3.22;;;;;;;;;;4992130;28;20044;-85
2021/12/10 00:05:28;;;;;;;18.20;3.40;;;;;;;;;;4983598;28;20953;-86
2021/12/10 00:07:56;;;;;;;19.33;3.38;;;;;;;;;;4983001;28;20104;-85
2021/12/10 00:10:25;;;;;;;19.25;3.08;;;;;;;;;;4997963;28;20120;-86
2021/12/10 00:12:52;;;;;;;17.10;3.22;;;;;;;;;;4995318;28;20041;-85
2021/12/10 00:15:21;;;;;;;20.13;3.85;;;;;;;;;;5001878;28;20117;-85
2021/12/10 00:17:48;;;;;;;16.17;3.40;;;;;;;;;;4996109;28;20140;-85
2021/12/10 00:20:15;;;;;;;18.55;2.60;;;;;;;;;;4989083;28;20063;-86
2021/12/10 00:22:49;;;;;;;22.10;3.03;;;;;;;;;;4981682;28;20086;-86
2021/12/10 00:25:18;;;;;;;21.35;3.30;;;;;;;;;;5001539;28;20044;-85
2021/12/10 00:27:45;;;;;;;16.20;3.80;;;;;;;;;;5000598;28;20038;-85
2021/12/10 00:30:12;;;;;;;;;;;;;;;;;;5006767;28;20022;-87
2021/12/10 00:32:45;;;;;;;20.50;3.88;;;;;;;;;;5024069;28;20160;-86
2021/12/10 00:35:15;;;;;;;16.77;2.63;;;;;;;;;;5010794;28;20054;-85
2021/12/10 00:37:42;;;;;;;18.77;3.55;;;;;;;;;;4990422;28;20536;-86
2021/12/10 00:40:10;;;;;;;18.02;3.58;;;;;;;;;;5014401;28;20037;-85
2021/12/10 00:42:38;;;;;;;18.80;4.35;;;;;;;;;;4989026;28;20034;-85
2021/12/10 00:45:07;;;;;;;17.17;3.42;;;;;;;;;;5002532;28;20072;-84
2021/12/10 00:47:37;;;;;;;20.73;3.20;;;;;;;;;;5005314;28;20117;-84
2021/12/10 00:50:05;;;;;;;14.85;2.90;;;;;;;;;;5002367;28;20042;-84
2021/12/10 00:52:33;;;;;;;18.77;2.95;;;;;;;;;;4985019;28;20046;-84
2021/12/10 00:55:00;;;;;;;16.85;2.92;;;;;;;;;;4980085;28;20176;-83
2021/12/10 00:57:27;;;;;;;18.00;2.90;;;;;;;;;;4983373;28;20025;-85
2021/12/10 00:59:54;;;;;;;14.27;3.08;;;;;;;;;;4995022;28;20072;-84
2021/12/10 01:02:22;;;;;;;13.43;2.83;;;;;;;;;;4981111;28;20057;-85
2021/12/10 01:04:51;;;;;;;19.58;3.45;;;;;;;;;;4994930;28;20064;-84
2021/12/10 01:07:20;;;;;;;14.10;2.83;;;;;;;;;;4963421;28;20030;-84
2021/12/10 01:09:50;;;;;;;20.48;3.17;;;;;;;;;;4980772;28;20041;-86
2021/12/10 01:12:26;;;;;;;14.95;2.38;;;;;;;;;;4972300;28;20057;-87
2021/12/10 01:29:13;;;;;;;18.65;2.65;;;;;;;;;;4984796;28;20041;-85
2021/12/10 01:31:40;;;;;;;14.48;2.50;;;;;;;;;;4998432;28;20948;-85
2021/12/10 01:34:07;;;;;;;13.00;2.40;;;;;;;;;;4982271;28;20053;-84
2021/12/10 01:36:36;;;;;;;13.98;2.65;;;;;;;;;;4994334;28;20181;-84
2021/12/10 01:39:06;;;;;;;20.50;2.65;;;;;;;;;;4997092;28;20048;-84
2021/12/10 01:41:37;;;;;;;14.07;2.35;;;;;;;;;;4994846;28;20385;-83
2021/12/10 01:44:14;;;;;;;12.82;2.42;;;;;;;;;;5000508;28;20275;-84
2021/12/10 01:46:43;;;;;;;12.32;2.63;;;;;;;;;;4977835;28;20450;-84
2021/12/10 01:49:12;;;;;;;14.73;2.72;;;;;;;;;;4982850;28;20044;-84
2021/12/10 01:51:43;;;;;;;15.85;2.38;;;;;;;;;;4983883;28;20034;-84
2021/12/10 01:54:13;;;;;;;16.05;2.53;;;;;;;;;;4988830;28;20045;-84
2021/12/10 01:56:41;;;;;;;13.25;2.38;;;;;;;;;;4979214;28;20038;-85
2021/12/10 01:59:10;;;;;;;14.02;2.25;;;;;;;;;;4984438;28;20054;-86
2021/12/10 02:01:43;;;;;;;13.35;2.42;;;;;;;;;;4996281;28;20713;-84
2021/12/10 02:04:11;;;;;;;13.00;1.88;;;;;;;;;;4997215;28;20268;-85
2021/12/10 02:06:38;;;;;;;9.75;1.65;;;;;;;;;;4979666;28;20045;-86
2021/12/10 02:09:05;;;;;;;12.25;1.92;;;;;;;;;;4987460;28;20040;-85
2021/12/10 02:11:32;;;;;;;10.50;1.88;;;;;;;;;;4996721;28;20579;-85
2021/12/10 02:13:59;;;;;;;13.52;2.20;;;;;;;;;;4978774;28;20046;-84
2021/12/10 02:16:26;;;;;;;15.48;2.67;;;;;;;;;;4982254;28;20038;-84
2021/12/10 02:18:54;;;;;;;12.25;2.10;;;;;;;;;;4978186;28;20108;-84
2021/12/10 02:21:22;;;;;;;13.32;2.28;;;;;;;;;;4980131;28;20053;-85
2021/12/10 02:23:55;;;;;;;13.55;2.15;;;;;;;;;;4977880;28;20026;-84
2021/12/10 02:26:22;;;;;;;13.95;2.17;;;;;;;;;;4975539;28;20162;-84
2021/12/10 02:28:49;;;;;;;8.63;1.92;;;;;;;;;;4984434;28;20133;-85
2021/12/10 02:31:15;;;;;;;;;;;;;;;;;;4977268;28;20073;-84
2021/12/10 02:33:42;;;;;;;10.98;1.80;;;;;;;;;;4973939;28;20012;-84
2021/12/10 02:36:12;;;;;;;12.00;2.20;;;;;;;;;;4980547;28;20053;-84
2021/12/10 02:38:40;;;;;;;9.63;1.80;;;;;;;;;;4973827;28;20909;-84
2021/12/10 02:41:07;;;;;;;10.50;1.50;;;;;;;;;;4984234;28;20033;-85
2021/12/10 02:43:35;;;;;;;11.35;1.48;;;;;;;;;;4995012;28;20030;-84
2021/12/10 02:46:02;;;;;;;10.38;1.73;;;;;;;;;;4997935;28;20062;-84
2021/12/10 02:48:29;;;;;;;11.07;1.92;;;;;;;;;;4986928;28;20097;-85
2021/12/10 02:50:56;;;;;;;11.45;1.90;;;;;;;;;;4990074;28;20030;-85
2021/12/10 02:53:27;;;;;;;10.10;1.90;;;;;;;;;;4988235;28;20104;-85
2021/12/10 02:55:55;;;;;;;10.38;1.95;;;;;;;;;;4984766;28;20109;-84
2021/12/10 02:58:23;;;;;;;10.68;1.52;;;;;;;;;;4993079;28;20933;-83
2021/12/10 03:00:59;;;;;;;9.35;1.70;;;;;;;;;;4999348;28;20066;-84
2021/12/10 03:03:27;;;;;;;11.00;1.80;;;;;;;;;;4993888;28;20038;-85
2021/12/10 03:06:00;;;;;;;12.52;2.45;;;;;;;;;;4997414;28;20084;-83
2021/12/10 03:08:27;;;;;;;12.95;2.33;;;;;;;;;;4996879;28;20111;-84
2021/12/10 03:10:54;;;;;;;12.52;2.47;;;;;;;;;;4996005;28;20046;-87
2021/12/10 03:13:21;;;;;;;16.10;2.60;;;;;;;;;;5007346;28;20034;-83
2021/12/10 03:15:50;;;;;;;13.55;2.40;;;;;;;;;;4979897;28;20045;-84
2021/12/10 03:18:18;;;;;;;12.55;2.35;;;;;;;;;;4985371;28;20042;-84
2021/12/10 03:20:46;;;;;;;11.80;2.08;;;;;;;;;;4988805;28;20028;-84
2021/12/10 03:23:13;;;;;;;10.35;2.13;;;;;;;;;;4987315;28;20030;-83
2021/12/10 03:26:07;;;;;;;12.38;2.10;;;;;;;;;;4986062;28;20093;-83
2021/12/10 03:28:36;;;;;;;7.38;1.48;;;;;;;;;;4992449;28;20033;-84
2021/12/10 03:31:09;;;;;;;8.48;1.90;;;;;;;;;;5003740;28;20124;-84
2021/12/10 03:33:41;;;;;;;11.45;2.15;;;;;;;;;;5003049;28;20041;-86
2021/12/10 03:36:09;;;;;;;10.90;1.77;;;;;;;;;;5008978;28;20033;-85
2021/12/10 03:38:38;;;;;;;11.75;1.73;;;;;;;;;;4992013;28;20540;-86
2021/12/10 03:41:05;;;;;;;12.30;2.05;;;;;;;;;;5009739;28;20119;-85
2021/12/10 03:43:33;;;;;;;12.57;1.95;;;;;;;;;;5006429;28;20069;-83
2021/12/10 03:46:04;;;;;;;11.25;1.80;;;;;;;;;;4993978;28;20029;-83
2021/12/10 03:48:45;;;;;;;10.07;1.65;;;;;;;;;;4997041;28;20321;-84
2021/12/10 03:51:14;;;;;;;14.48;2.53;;;;;;;;;;5012398;28;20038;-84
2021/12/10 03:53:44;;;;;;;14.18;2.00;;;;;;;;;;5016666;28;20299;-84
2021/12/10 03:56:13;;;;;;;7.85;1.80;;;;;;;;;;5014529;28;20041;-84
2021/12/10 03:58:45;;;;;;;12.05;2.38;;;;;;;;;;4997881;28;20049;-83
2021/12/10 04:01:14;;;;;;;11.35;1.80;;;;;;;;;;5017104;28;20041;-84
2021/12/10 04:03:45;;;;;;;10.00;1.95;;;;;;;;;;5006545;28;20496;-84
2021/12/10 04:06:11;;;;;;;11.43;2.20;;;;;;;;;;4999377;28;20223;-84
2021/12/10 04:08:38;;;;;;;12.13;2.28;;;;;;;;;;4997476;28;20037;-83
2021/12/10 04:11:07;;;;;;;11.05;2.10;;;;;;;;;;5001499;28;20535;-84
2021/12/10 04:13:37;;;;;;;12.05;2.25;;;;;;;;;;5017044;28;20127;-84
2021/12/10 04:16:05;;;;;;;11.52;2.20;;;;;;;;;;5010031;28;20049;-84
2021/12/10 04:18:35;;;;;;;13.45;2.03;;;;;;;;;;5010521;28;20554;-84
2021/12/10 04:21:05;;;;;;;12.93;2.78;;;;;;;;;;5007602;28;20140;-83
2021/12/10 04:23:33;;;;;;;10.73;2.28;;;;;;;;;;4993108;28;20048;-84
2021/12/10 04:26:00;;;;;;;13.07;2.50;;;;;;;;;;5008268;28;20100;-85
2021/12/10 04:28:27;;;;;;;13.48;2.53;;;;;;;;;;5007062;28;20036;-83
2021/12/10 04:30:54;;;;;;;19.13;3.17;;;;;;;;;;5011617;28;20048;-84
2021/12/10 04:33:25;;;;;;;17.17;3.25;;;;;;;;;;5007092;28;20025;-85
2021/12/10 04:35:58;;;;;;;14.35;2.85;;;;;;;;;;4987589;28;20536;-85
2021/12/10 04:38:26;;;;;;;14.32;3.03;;;;;;;;;;5006039;28;20042;-86
2021/12/10 04:40:59;;;;;;;15.73;3.28;;;;;;;;;;5000710;28;20049;-86
2021/12/10 04:43:27;;;;;;;15.15;3.20;;;;;;;;;;4992063;28;20068;-84
2021/12/10 04:45:55;;;;;;;13.13;2.47;;;;;;;;;;5010794;28;20044;-83
2021/12/10 04:48:23;;;;;;;15.13;3.30;;;;;;;;;;4992768;28;20736;-82
2021/12/10 04:50:51;;;;;;;16.55;3.17;;;;;;;;;;4998972;28;20028;-83
2021/12/10 04:53:18;;;;;;;13.70;2.50;;;;;;;;;;5007746;28;20037;-83
2021/12/10 04:55:46;;;;;;;16.42;2.88;;;;;;;;;;5003479;28;20294;-83
2021/12/10 04:58:13;;;;;;;15.45;2.90;;;;;;;;;;5011322;28;20033;-83
2021/12/10 05:00:49;;;;;;;15.68;2.80;;;;;;;;;;4999281;28;20996;-84
2021/12/10 05:03:16;;;;;;;12.73;2.40;;;;;;;;;;4990207;28;20084;-85
2021/12/10 05:05:48;;;;;;;15.40;2.53;;;;;;;;;;4992219;28;20484;-85
2021/12/10 05:08:15;;;;;;;11.75;2.17;;;;;;;;;;4990669;28;20038;-85
2021/12/10 05:10:43;;;;;;;15.70;2.45;;;;;;;;;;4997861;28;20045;-85
2021/12/10 05:13:12;;;;;;;14.13;2.50;;;;;;;;;;4998537;28;20041;-84
2021/12/10 05:15:39;;;;;;;16.48;2.80;;;;;;;;;;5008564;28;20049;-84
2021/12/10 05:18:12;;;;;;;13.02;2.53;;;;;;;;;;5000404;28;20025;-85
2021/12/10 05:20:44;;;;;;;11.60;2.22;;;;;;;;;;4986488;28;20044;-84
2021/12/10 05:23:11;;;;;;;13.75;2.47;;;;;;;;;;5015158;28;20095;-87
2021/12/10 05:25:38;;;;;;;13.63;2.25;;;;;;;;;;5002573;28;20036;-86
2021/12/10 05:28:05;;;;;;;12.45;2.35;;;;;;;;;;5006546;28;20369;-86
2021/12/10 05:30:34;;;;;;;14.18;2.63;;;;;;;;;;4998198;28;20097;-86
2021/12/10 05:33:14;;;;;;;12.73;2.40;;;;;;;;;;5005199;28;20102;-86
2021/12/10 05:35:42;;;;;;;15.07;3.07;;;;;;;;;;5005064;28;20038;-86
2021/12/10 05:38:09;;;;;;;12.27;2.40;;;;;;;;;;5012197;28;20041;-84
2021/12/10 05:40:38;;;;;;;13.98;2.92;;;;;;;;;;4992359;28;20116;-85
2021/12/10 05:43:05;;;;;;;13.73;2.35;;;;;;;;;;5007948;28;21191;-85
2021/12/10 05:45:33;;;;;;;15.43;2.58;;;;;;;;;;5000925;28;20045;-84
2021/12/10 05:48:33;;;;;;;12.18;2.45;;;;;;;;;;4991080;28;20021;-84
2021/12/10 05:51:00;;;;;;;13.27;2.63;;;;;;;;;;4983896;28;20038;-85
2021/12/10 05:53:27;;;;;;;12.23;2.25;;;;;;;;;;5004666;28;20037;-85
2021/12/10 05:55:54;;;;;;;12.43;2.33;;;;;;;;;;4997075;28;20780;-85
2021/12/10 05:58:21;;;;;;;9.98;1.88;;;;;;;;;;4993581;28;20615;-85
2021/12/10 06:00:50;;;;;;;14.45;2.10;;;;;;;;;;4982731;28;20316;-85
2021/12/10 06:03:17;;;;;;;11.23;2.15;;;;;;;;;;5004178;28;20476;-85
2021/12/10 06:05:46;;;;;;;11.80;2.13;;;;;;;;;;4999399;28;20021;-86
2021/12/10 06:08:13;;;;;;;11.75;2.83;;;;;;;;;;5002684;28;20161;-86
2021/12/10 06:10:39;;;;;;;12.18;2.10;;;;;;;;;;4985988;28;20057;-86
2021/12/10 06:13:06;;;;;;;12.85;2.25;;;;;;;;;;4985894;28;20547;-86
2021/12/10 06:15:34;;;;;;;11.70;2.25;;;;;;;;;;5004538;28;20362;-85
2021/12/10 06:18:01;;;;;;;8.82;1.92;;;;;;;;;;5001870;28;20033;-84
2021/12/10 06:20:30;;;;;;;14.27;2.40;;;;;;;;;;5006996;28;20044;-83
2021/12/10 06:22:59;;;;;;;15.40;3.13;;;;;;;;;;4991361;28;20772;-85
2021/12/10 06:25:27;;;;;;;16.55;3.53;;;;;;;;;;4998621;28;20030;-84
2021/12/10 06:27:54;;;;;;;22.35;2.95;;;;;;;;;;4976415;28;20037;-87
2021/12/10 06:30:23;;;;;;;16.20;3.17;;;;;;;;;;4989073;28;20045;-87
2021/12/10 06:32:52;;;;;;;15.57;2.95;;;;;;;;;;4986234;28;20103;-87
2021/12/10 06:35:21;;;;;;;17.23;2.70;;;;;;;;;;5007525;28;20132;-87
2021/12/10 06:37:51;;;;;;;12.60;2.42;;;;;;;;;;5000346;28;20048;-84
2021/12/10 06:40:22;;;;;;;19.48;2.80;;;;;;;;;;4987471;28;20518;-84
2021/12/10 06:42:50;;;;;;;15.98;2.53;;;;;;;;;;4989612;28;20038;-85
2021/12/10 06:45:19;;;;;;;18.08;3.25;;;;;;;;;;4980696;28;20103;-85
2021/12/10 06:47:48;;;;;;;14.35;3.08;;;;;;;;;;4986897;28;20025;-85
2021/12/10 06:50:19;;;;;;;17.58;2.47;;;;;;;;;;5001531;28;20041;-85
2021/12/10 06:52:46;;;;;;;17.52;2.97;;;;;;;;;;4978515;28;20052;-84
2021/12/10 06:55:14;;;;;;;13.68;3.08;;;;;;;;;;4990902;28;20046;-84
2021/12/10 06:57:41;;;;;;;17.15;3.17;;;;;;;;;;4979064;28;20443;-84
2021/12/10 07:00:10;;;;;;;14.75;2.47;;;;;;;;;;4973710;28;20030;-84
2021/12/10 07:02:38;;;;;;;18.13;3.15;;;;;;;;;;4975949;28;20049;-84
2021/12/10 07:05:05;;;;;;;18.55;3.20;;;;;;;;;;4991642;28;20085;-84
2021/12/10 07:07:32;;;;;;;15.95;2.80;;;;;;;;;;4991732;28;21000;-84
2021/12/10 07:10:00;;;;;;;13.93;2.75;;;;;;;;;;4995428;28;20927;-85
2021/12/10 07:12:27;;;;;;;12.15;2.47;;;;;;;;;;4985283;28;20117;-85
2021/12/10 07:14:56;;;;;;;13.25;2.38;;;;;;;;;;4975813;28;20053;-86
2021/12/10 07:17:23;;;;;;;14.05;3.50;;;;;;;;;;4993161;28;20030;-87
2021/12/10 07:19:50;;;;;;;14.20;2.90;;;;;;;;;;4984003;28;20463;-86
2021/12/10 07:22:17;;;;;;;13.18;2.40;;;;;;;;;;4979629;28;20057;-85
2021/12/10 07:24:44;;;;;;;15.23;2.70;;;;;;;;;;4992909;28;20767;-85
2021/12/10 07:27:12;;;;;;;12.43;2.20;;;;;;;;;;4986460;28;20562;-85
2021/12/10 07:29:40;;;;;;;16.58;2.45;;;;;;;;;;4984344;28;20439;-86
2021/12/10 07:32:07;;;;;;;17.60;3.00;;;;;;;;;;4983472;28;20086;-85
2021/12/10 07:34:35;;;;;;;12.18;2.00;;;;;;;;;;4997590;28;20042;-86
2021/12/10 07:37:02;;;;;;;10.88;2.40;;;;;;;;;;4999773;28;20034;-86
2021/12/10 07:39:30;;;;;;;15.20;2.50;;;;;;;;;;4984595;28;20133;-86
2021/12/10 07:42:00;;;;;;;14.43;2.45;;;;;;;;;;4993173;28;20111;-87
2021/12/10 07:44:27;;;;;;;13.57;2.20;;;;;;;;;;4982323;28;20057;-84
2021/12/10 07:46:55;;;;;;;15.30;2.38;;;;;;;;;;4987382;28;20058;-84
2021/12/10 07:49:29;;;;;;;16.00;2.50;;;;;;;;;;4985136;28;20049;-85
2021/12/10 07:51:57;;;;;;;11.85;2.10;;;;;;;;;;4995452;28;20036;-85
2021/12/10 07:54:24;;;;;;;14.02;2.60;;;;;;;;;;5024601;28;20044;-84
2021/12/10 07:56:50;;;;;;;13.23;2.60;;;;;;;;;;5011132;28;20093;-84
2021/12/10 07:59:17;;;;;;;21.25;4.40;;;;;;;;;;5016640;28;20042;-84
2021/12/10 08:01:44;;;;;;;16.98;3.17;;;;;;;;;;4995545;28;20083;-84
2021/12/10 08:04:11;;;;;;;14.80;2.75;;;;;;;;;;5013527;28;20025;-85
2021/12/10 08:06:39;;;;;;;11.45;2.40;;;;;;;;;;4994068;28;20519;-85
2021/12/10 08:09:06;;;;;;;12.77;2.60;;;;;;;;;;4991007;28;20030;-84
2021/12/10 08:11:33;;;;;;;13.02;2.45;;;;;;;;;;5011288;28;20042;-84
2021/12/10 08:14:00;;;;;;;11.70;2.30;;;;;;;;;;4997778;28;20048;-84
2021/12/10 08:16:27;;;;;;;11.57;2.55;;;;;;;;;;5002951;28;20045;-85
2021/12/10 08:18:56;;;;;;;17.13;3.85;;;;;;;;;;4987367;28;20132;-85
2021/12/10 08:21:25;;;;;;;14.50;3.00;;;;;;;;;;5002881;28;20029;-84
2021/12/10 08:23:53;;;;;;;13.75;2.80;;;;;;;;;;4999513;28;20033;-84
2021/12/10 08:26:21;;;;;;;14.80;3.03;;;;;;;;;;4982978;28;20041;-85
2021/12/10 08:28:48;;;;;;;16.20;3.30;;;;;;;;;;4981842;28;20049;-85
2021/12/10 08:31:16;;;;;;;16.13;3.53;;;;;;;;;;4997026;28;20602;-84
2021/12/10 08:33:47;;;;;;;15.75;4.00;;;;;;;;;;4975521;28;20128;-84
2021/12/10 08:36:15;;;;;;;13.30;2.38;;;;;;;;;;5001472;28;20037;-85
2021/12/10 08:38:42;;;;;;;17.20;2.75;;;;;;;;;;5004186;28;20034;-86
2021/12/10 08:41:12;;;;;;;13.45;3.10;;;;;;;;;;4986901;28;20042;-85
2021/12/10 08:43:40;;;;;;;12.18;2.90;;;;;;;;;;5002573;28;20033;-85
2021/12/10 08:46:08;;;;;;;17.00;3.47;;;;;;;;;;5001517;28;20041;-85
2021/12/10 08:48:37;;;;;;;13.27;2.70;;;;;;;;;;4991040;28;20038;-86
2021/12/10 08:51:26;;;;;;;12.27;2.33;;;;;;;;;;5003335;28;20083;-86
2021/12/10 08:53:53;;;;;;;14.20;3.50;;;;;;;;;;4999018;28;20094;-85
2021/12/10 08:56:22;;;;;;;14.23;2.83;;;;;;;;;;4999808;28;20570;-86
2021/12/10 08:58:49;;;;;;;12.80;2.55;;;;;;;;;;4986846;28;20042;-86
2021/12/10 09:01:19;;;;;;;15.00;3.20;;;;;;;;;;4985412;28;20056;-85
2021/12/10 09:03:48;;;;;;;15.35;3.10;;;;;;;;;;4995447;28;20092;-86
2021/12/10 09:06:15;;;;;;;12.88;3.53;;;;;;;;;;4985373;28;20030;-85
2021/12/10 09:08:42;;;;;;;15.90;3.30;;;;;;;;;;5008570;28;20022;-86
2021/12/10 09:11:10;;;;;;;18.38;3.47;;;;;;;;;;5005334;28;20049;-86
2021/12/10 09:13:38;;;;;;;20.92;3.10;;;;;;;;;;4986652;28;20041;-84
2021/12/10 09:16:07;;;;;;;16.77;3.30;;;;;;;;;;4988862;28;20048;-85
2021/12/10 09:18:40;;;;;;;16.98;2.85;;;;;;;;;;4992882;28;20472;-85
2021/12/10 09:21:08;;;;;;;18.50;3.55;;;;;;;;;;5007174;28;20716;-85
2021/12/10 09:23:35;;;;;;;16.35;3.05;;;;;;;;;;5001704;28;20038;-85
2021/12/10 09:26:07;;;;;;;20.88;3.83;;;;;;;;;;4996034;28;20504;-84
2021/12/10 09:28:36;;;;;;;17.02;3.28;;;;;;;;;;4991611;28;20037;-85
2021/12/10 09:31:04;;;;;;;15.75;3.42;;;;;;;;;;4991136;28;20689;-85
2021/12/10 09:33:31;;;;;;;16.83;3.20;;;;;;;;;;4990889;28;20025;-85
2021/12/10 09:35:59;;;;;;;18.15;3.60;;;;;;;;;;5005167;28;22266;-86
2021/12/10 09:38:25;;;;;;;15.20;3.67;;;;;;;;;;5005240;28;20030;-86
2021/12/10 09:40:55;;;;;;;16.20;3.55;;;;;;;;;;5007523;28;20045;-86
2021/12/10 09:43:23;;;;;;;14.40;2.55;;;;;;;;;;5008419;28;20030;-86
2021/12/10 09:45:52;;;;;;;12.63;2.33;;;;;;;;;;4976826;28;20125;-85
2021/12/10 09:48:19;;;;;;;11.20;2.13;;;;;;;;;;5014128;28;20021;-84
2021/12/10 09:50:47;;;;;;;18.15;2.55;;;;;;;;;;5007590;28;20655;-85
2021/12/10 09:53:15;;;;;;;8.23;1.40;;;;;;;;;;5003851;28;20041;-85
2021/12/10 09:55:42;;;;;;;7.57;1.40;;;;;;;;;;4988829;28;20042;-85
2021/12/10 09:58:09;;;;;;;11.07;1.88;;;;;;;;;;5010115;28;20677;-84
2021/12/10 10:00:40;;;;;;;8.75;1.83;;;;;;;;;;5003827;28;20037;-85
2021/12/10 10:03:10;;;;;;;10.00;1.80;;;;;;;;;;4977083;28;20033;-85
2021/12/10 10:05:38;;;;;;;8.90;1.42;;;;;;;;;;5029295;28;20040;-86
2021/12/10 10:08:08;;;;;;;10.52;1.73;;;;;;;;;;5023868;28;20069;-85
2021/12/10 10:10:36;;;;;;;6.53;1.30;;;;;;;;;;5033345;28;20037;-86
2021/12/10 10:13:05;;;;;;;19.45;10.60;;;;;;;;;;5019485;28;20026;-85
2021/12/10 10:15:32;;;;;;;8.88;2.65;;;;;;;;;;5006414;28;20240;-82
2021/12/10 10:18:00;;;;;;;11.23;3.17;;;;;;;;;;4989798;28;20129;-83
2021/12/10 10:20:29;;;;;;;9.65;3.03;;;;;;;;;;4982517;28;20108;-83
2021/12/10 10:22:56;;;;;;;7.65;1.40;;;;;;;;;;5006935;28;20041;-82
2021/12/10 10:25:25;;;;;;;8.85;2.20;;;;;;;;;;5009833;28;20037;-84
2021/12/10 10:27:52;;;;;;;12.38;2.28;;;;;;;;;;4995842;28;20112;-84
2021/12/10 10:30:22;;;;;;;7.72;1.40;;;;;;;;;;4989533;28;20021;-85
2021/12/10 10:32:49;;;;;;;9.32;1.83;;;;;;;;;;5004542;28;20053;-87
2021/12/10 10:35:21;;;;;;;9.98;2.05;;;;;;;;;;5000780;28;20029;-83
2021/12/10 10:37:49;;;;;;;13.77;6.75;;;;;;;;;;4997302;28;20045;-83
2021/12/10 10:40:18;;;;;;;8.60;3.00;;;;;;;;;;5001216;28;20041;-83
2021/12/10 10:42:45;;;;;;;7.72;1.67;;;;;;;;;;4991360;28;20041;-82
2021/12/10 10:45:20;;;;;;;7.78;1.75;;;;;;;;;;4985012;28;20044;-84
2021/12/10 10:47:47;;;;;;;8.50;1.73;;;;;;;;;;4996207;28;20672;-82
2021/12/10 10:50:22;;;;;;;11.00;2.10;;;;;;;;;;4990866;28;20037;-81
2021/12/10 10:52:54;;;;;;;9.17;1.60;;;;;;;;;;4975588;28;20176;-82
2021/12/10 10:55:24;;;;;;;10.45;2.30;;;;;;;;;;5000017;28;20837;-81
2021/12/10 10:57:57;;;;;;;10.85;3.22;;;;;;;;;;4970625;28;20042;-82
2021/12/10 11:00:29;;;;;;;11.50;3.50;;;;;;;;;;4980912;28;20128;-82
2021/12/10 11:03:03;;;;;;;9.48;2.33;;;;;;;;;;4976691;28;20033;-82
2021/12/10 11:05:35;;;;;;;11.40;2.70;;;;;;;;;;4974751;28;20088;-82
2021/12/10 11:08:02;;;;;;;14.20;2.92;;;;;;;;;;4986217;28;21656;-83
2021/12/10 11:10:34;;;;;;;11.70;3.03;;;;;;;;;;4996261;28;20112;-82
2021/12/10 11:13:10;;;;;;;12.05;2.42;;;;;;;;;;4974363;28;20034;-82
2021/12/10 11:15:38;;;;;;;11.00;2.92;;;;;;;;;;4984840;28;20034;-83
2021/12/10 11:18:05;;;;;;;12.32;2.75;;;;;;;;;;4992826;28;20022;-82
2021/12/10 11:20:42;;;;;;;16.35;3.10;;;;;;;;;;4973332;28;20041;-84
2021/12/10 11:23:13;;;;;;;12.57;3.50;;;;;;;;;;4968108;28;20360;-82
2021/12/10 11:25:49;;;;;;;11.02;2.65;;;;;;;;;;4970283;28;20548;-81
2021/12/10 11:28:20;;;;;;;10.10;2.27;;;;;;;;;;4975571;28;20404;-83
2021/12/10 11:30:50;;;;;;;10.60;1.90;;;;;;;;;;4970082;28;20588;-83
2021/12/10 11:33:19;;;;;;;9.15;2.05;;;;;;;;;;4976996;28;20088;-83
2021/12/10 11:36:06;;;;;;;9.10;2.28;;;;;;;;;;4985602;28;20586;-83
2021/12/10 11:38:32;;;;;;;;;;;;;;;;;;4975797;28;20583;-83
2021/12/10 11:41:01;;;;;;;12.57;2.30;;;;;;;;;;4958027;28;19947;-84
2021/12/10 11:48:36;;;;;;;8.85;2.10;;;;;;;;;;4970915;28;20485;-83
2021/12/10 11:51:03;;;;;;;11.07;2.75;;;;;;;;;;4992327;28;20033;-82
2021/12/10 11:53:41;;;;;;;10.50;2.10;;;;;;;;;;4997345;28;20442;-85
2021/12/10 11:56:11;;;;;;;10.38;2.17;;;;;;;;;;4971530;28;20050;-83
2021/12/10 11:58:38;;;;;;;7.03;1.58;;;;;;;;;;4979872;28;20302;-84
2021/12/10 12:01:13;;;;;;;10.30;1.75;;;;;;;;;;4974847;28;20488;-83
2021/12/10 12:03:40;;;;;;;8.00;1.75;;;;;;;;;;4983758;28;20045;-83
2021/12/10 12:06:07;;;;;;;10.98;2.05;;;;;;;;;;4980468;28;20079;-82
2021/12/10 12:08:39;;;;;;;8.52;1.75;;;;;;;;;;5000062;28;20033;-83
2021/12/10 12:11:08;;;;;;;11.13;1.65;;;;;;;;;;4983457;28;20069;-88
2021/12/10 12:13:54;;;;;;;10.15;1.73;;;;;;;;;;4998997;28;20037;-86
2021/12/10 12:16:26;;;;;;;9.27;1.95;;;;;;;;;;4995652;28;20049;-85
2021/12/10 12:18:57;;;;;;;7.95;1.45;;;;;;;;;;4990963;28;20052;-85
2021/12/10 12:27:13;;;;;;;7.88;1.42;;;;;;;;;;4966707;28;20053;-86
2021/12/10 12:29:52;;;;;;;6.57;1.50;;;;;;;;;;5000933;28;20063;-85
2021/12/10 12:32:25;;;;;;;12.00;1.70;;;;;;;;;;4999980;28;20353;-87
2021/12/10 12:34:53;;;;;;;9.55;1.40;;;;;;;;;;4977845;28;20566;-85
2021/12/10 12:37:22;;;;;;;9.02;1.63;;;;;;;;;;4988969;28;20046;-85
2021/12/10 12:39:56;;;;;;;11.63;1.30;;;;;;;;;;4978751;28;20045;-86
2021/12/10 12:42:23;;;;;;;8.60;1.33;;;;;;;;;;5008928;28;20030;-87
2021/12/10 12:44:51;;;;;;;12.43;1.65;;;;;;;;;;5012644;28;20496;-85
2021/12/10 12:47:20;;;;;;;9.40;1.77;;;;;;;;;;4992204;28;20041;-87
2021/12/10 12:49:48;;;;;;;12.18;1.73;;;;;;;;;;5004795;28;20076;-88
2021/12/10 12:52:15;;;;;;;6.45;1.23;;;;;;;;;;5001530;28;20053;-87
2021/12/10 12:55:01;;;;;;;9.73;1.67;;;;;;;;;;4991773;28;20030;-86
2021/12/10 12:57:40;;;;;;;12.20;1.92;;;;;;;;;;4995459;28;20037;-86
2021/12/10 13:00:10;;;;;;;12.18;1.85;;;;;;;;;;4990777;28;20389;-89
2021/12/10 13:02:36;;;;;;;9.30;1.38;;;;;;;;;;4983782;28;20045;-89
2021/12/10 13:05:05;;;;;;;11.50;1.77;;;;;;;;;;5003251;28;20326;-90
2021/12/10 13:07:32;;;;;;;9.00;2.00;;;;;;;;;;4989870;28;20041;-90
2021/12/10 13:10:03;;;;;;;8.10;1.50;;;;;;;;;;4993156;28;20068;-87
2021/12/10 13:13:00;;;;;;;9.43;1.35;;;;;;;;;;4983227;28;20121;-89
2021/12/10 13:15:33;;;;;;;10.52;1.95;;;;;;;;;;4987428;28;20085;-90
2021/12/10 13:18:02;;;;;;;6.40;1.48;;;;;;;;;;5000396;28;22262;-88
2021/12/10 13:20:37;;;;;;;5.72;1.75;;;;;;;;;;4985706;28;20133;-88
2021/12/10 13:23:06;;;;;;;7.47;1.63;;;;;;;;;;4973680;28;20038;-89
2021/12/10 13:25:34;;;;;;;10.70;1.50;;;;;;;;;;4992625;28;20133;-88
2021/12/10 13:28:16;;;;;;;8.70;1.70;;;;;;;;;;4998751;28;20038;-88
2021/12/10 13:30:58;;;;;;;8.23;1.95;;;;;;;;;;4988330;28;20048;-89
2021/12/10 13:33:39;;;;;;;9.55;2.17;;;;;;;;;;4989729;28;20025;-89
2021/12/10 13:36:06;;;;;;;9.68;1.70;;;;;;;;;;4987679;28;20435;-89
2021/12/10 13:38:33;;;;;;;14.90;2.25;;;;;;;;;;5000867;28;21026;-87
2021/12/10 13:41:02;;;;;;;6.97;1.67;;;;;;;;;;5000888;28;20034;-88
2021/12/10 13:43:30;;;;;;;12.07;2.28;;;;;;;;;;4992328;28;20034;-89
2021/12/10 13:46:07;;;;;;;7.05;1.65;;;;;;;;;;4986980;28;20042;-85
2021/12/10 13:48:39;;;;;;;10.50;2.25;;;;;;;;;;4999428;28;20734;-87
2021/12/10 13:51:08;;;;;;;8.93;2.35;;;;;;;;;;4999972;28;20041;-87
2021/12/10 13:53:36;;;;;;;10.27;1.70;;;;;;;;;;5001415;28;20076;-87
2021/12/10 13:56:07;;;;;;;8.57;1.88;;;;;;;;;;4992320;28;20057;-87
2021/12/10 13:58:51;;;;;;;12.18;1.85;;;;;;;;;;4980785;28;20101;-89
2021/12/10 14:01:23;;;;;;;12.00;1.85;;;;;;;;;;4990538;28;20034;-89
2021/12/10 14:04:10;;;;;;;12.50;1.73;;;;;;;;;;4977657;28;20037;-87
2021/12/10 14:06:45;;;;;;;14.07;1.93;;;;;;;;;;4985327;28;20038;-91
2021/12/10 14:09:15;;;;;;;10.68;2.58;;;;;;;;;;4985897;28;20046;-94
2021/12/10 14:11:56;;;;;;;13.52;1.80;;;;;;;;;;4990766;28;20034;-92
2021/12/10 14:14:38;;;;;;;12.77;1.83;;;;;;;;;;4997300;28;20080;-93
2021/12/10 14:17:09;;;;;;;11.00;2.00;;;;;;;;;;5001253;28;20030;-92
2021/12/10 14:20:01;;;;;;;8.80;1.45;;;;;;;;;;5000501;28;20396;-93
2021/12/10 14:22:48;;;;;;;11.75;1.67;;;;;;;;;;4989171;28;20484;-89
2021/12/10 14:25:17;;;;;;;11.00;1.27;;;;;;;;;;4982162;28;20065;-90
2021/12/10 14:27:53;;;;;;;8.82;1.65;;;;;;;;;;4997793;28;20639;-90
2021/12/10 14:30:31;;;;;;;9.57;1.60;;;;;;;;;;4973234;28;20034;-91
2021/12/10 14:32:59;;;;;;;7.88;1.80;;;;;;;;;;4985511;28;22226;-89
2021/12/10 14:35:40;;;;;;;8.23;1.40;;;;;;;;;;5006622;28;20060;-89
2021/12/10 14:38:08;;;;;;;9.52;1.58;;;;;;;;;;4991476;28;20046;-88
2021/12/10 14:40:48;;;;;;;9.70;1.35;;;;;;;;;;4984329;28;20739;-92
2021/12/10 14:43:20;;;;;;;6.47;1.30;;;;;;;;;;5012325;28;20050;-90
2021/12/10 14:45:59;;;;;;;10.68;1.75;;;;;;;;;;5001936;28;20058;-89
2021/12/10 14:48:29;;;;;;;11.20;1.35;;;;;;;;;;4978117;28;20034;-92
2021/12/10 14:51:07;;;;;;;5.60;1.08;;;;;;;;;;5007243;28;20049;-91
2021/12/10 14:53:41;;;;;;;6.28;1.25;;;;;;;;;;5010927;28;20053;-92
2021/12/10 14:56:28;;;;;;;12.35;3.85;;;;;;;;;;4968068;28;20038;-92
2021/12/10 14:59:15;;;;;;;8.48;1.63;;;;;;;;;;4979480;28;21261;-90
2021/12/10 15:01:48;;;;;;;9.40;1.92;;;;;;;;;;4999843;28;20038;-91
2021/12/10 15:04:43;;;;;;;8.60;1.42;;;;;;;;;;4996846;28;20038;-90
2021/12/10 15:07:17;;;;;;;9.00;1.55;;;;;;;;;;5013346;28;20040;-92
2021/12/10 15:10:02;;;;;;;7.15;1.60;;;;;;;;;;4987994;28;20169;-91
2021/12/10 15:13:06;;;;;;;8.98;1.48;;;;;;;;;;4995008;28;20446;-90
2021/12/10 15:16:04;;;;;;;8.85;1.45;;;;;;;;;;4939968;28;20109;-92